Aviation Digital Data Service (ADDS)

Output produced by METARs form (1747 UTC 31 October 2014)
found at http://www.aviationweather.gov/adds/metars/
 
KSBY 311654Z 36007KT 10SM OVC049 14/03 A2991 RMK AO2 SLP129 T01390033
KSBY 311732Z 3118/0118 02007KT P6SM BKN045 BKN250 
     FM312200 03007KT P6SM SCT040 
     FM010400 01004KT P6SM BKN035 
     FM011000 36006KT P6SM BKN025 
     FM011500 36010KT P6SM -RA BKN012